Time;durP1;ratioP1;P1;durP2;ratioP2;P2;SDS_P1;SDS_P2;PMS_P1;PMS_P2;Temp;Humidity;BMP_temperature;BMP_pressure;BME280_temperature;BME280_humidity;BME280_pressure;Samples;Min_cycle;Max_cycle;Signal;HPM_P1;HPM_P2
2021/01/10 00:00:45;;;;;;;25.73;15.37;;;3.80;99.90;;;;;;4960494;28;20521;-70
2021/01/10 00:03:14;;;;;;;16.17;10.60;;;3.80;99.90;;;;;;4975262;28;20547;-71
2021/01/10 00:05:41;;;;;;;36.50;17.23;;;3.70;99.90;;;;;;4975458;28;20456;-71
2021/01/10 00:08:08;;;;;;;30.57;15.90;;;3.70;99.90;;;;;;4974252;28;20467;-73
2021/01/10 00:10:35;;;;;;;23.67;15.73;;;3.80;99.90;;;;;;4976606;28;20446;-71
2021/01/10 00:13:04;;;;;;;17.03;9.97;;;3.70;99.90;;;;;;4975774;28;21200;-71
2021/01/10 00:15:31;;;;;;;23.63;11.87;;;3.70;99.90;;;;;;4980138;28;20609;-73
2021/01/10 00:17:58;;;;;;;22.90;16.23;;;3.60;99.90;;;;;;4980127;28;20541;-72
2021/01/10 00:20:25;;;;;;;28.70;19.20;;;3.70;99.90;;;;;;4970325;28;20463;-73
2021/01/10 00:22:52;;;;;;;33.40;13.77;;;3.70;99.90;;;;;;4971390;28;21710;-73
2021/01/10 00:25:19;;;;;;;22.73;14.87;;;3.70;99.90;;;;;;4975176;28;20874;-71
2021/01/10 00:27:46;;;;;;;38.03;17.80;;;3.80;99.90;;;;;;4978338;28;20458;-72
2021/01/10 00:30:16;;;;;;;34.47;14.97;;;3.80;99.90;;;;;;4974767;28;20455;-74
2021/01/10 00:32:47;;;;;;;30.70;14.90;;;3.80;99.90;;;;;;4976813;28;20525;-72
2021/01/10 00:35:13;;;;;;;27.77;17.73;;;3.80;99.90;;;;;;4974919;28;20516;-75
2021/01/10 00:37:44;;;;;;;33.47;16.43;;;3.80;99.90;;;;;;4990467;28;20451;-72
2021/01/10 00:40:11;;;;;;;31.13;15.40;;;3.70;99.90;;;;;;4981211;28;20462;-70
2021/01/10 00:42:40;;;;;;;19.67;10.63;;;3.70;99.90;;;;;;4975656;28;20546;-74
2021/01/10 00:45:08;;;;;;;21.23;12.87;;;3.70;99.90;;;;;;4980360;28;21944;-72
2021/01/10 00:47:35;;;;;;;31.33;15.00;;;3.80;99.90;;;;;;4975294;28;20567;-75
2021/01/10 00:50:02;;;;;;;22.57;16.83;;;3.80;99.90;;;;;;4976179;28;20691;-75
2021/01/10 00:52:30;;;;;;;42.47;14.87;;;3.80;99.90;;;;;;4981475;28;20447;-75
2021/01/10 00:54:57;;;;;;;21.77;10.97;;;3.80;99.90;;;;;;4975948;28;20460;-75
2021/01/10 00:57:23;;;;;;;30.50;15.10;;;3.70;99.90;;;;;;4979814;28;20515;-74
2021/01/10 00:59:50;;;;;;;17.43;11.50;;;3.70;99.90;;;;;;4982266;28;21717;-75
2021/01/10 01:02:17;;;;;;;24.00;10.90;;;3.80;99.90;;;;;;4980473;28;20487;-75
2021/01/10 01:04:46;;;;;;;26.50;11.43;;;3.70;99.90;;;;;;4974748;28;20865;-74
2021/01/10 01:07:15;;;;;;;29.83;14.23;;;3.60;99.90;;;;;;4973561;28;20463;-74
2021/01/10 01:09:42;;;;;;;29.03;16.13;;;3.70;99.90;;;;;;4977880;28;20515;-75
2021/01/10 01:12:09;;;;;;;18.00;11.50;;;3.70;99.90;;;;;;4976081;28;20559;-75
2021/01/10 01:14:36;;;;;;;21.07;12.70;;;3.70;99.90;;;;;;4980488;28;20826;-72
2021/01/10 01:17:02;;;;;;;16.73;12.90;;;3.70;99.90;;;;;;4977208;28;20822;-74
2021/01/10 01:19:29;;;;;;;36.57;18.90;;;3.60;99.90;;;;;;4978396;28;20448;-74
2021/01/10 01:22:00;;;;;;;22.30;12.30;;;3.60;99.90;;;;;;4970497;28;20531;-74
2021/01/10 01:24:27;;;;;;;22.73;14.33;;;3.70;99.90;;;;;;4972937;28;20474;-75
2021/01/10 01:26:54;;;;;;;27.60;18.47;;;3.70;99.90;;;;;;4978619;28;20451;-70
2021/01/10 01:29:21;;;;;;;30.33;16.40;;;3.70;99.90;;;;;;4976420;28;20425;-71
2021/01/10 01:31:47;;;;;;;18.60;10.80;;;3.70;99.90;;;;;;4975560;28;20992;-71
2021/01/10 01:34:14;;;;;;;26.67;14.43;;;3.70;99.90;;;;;;4973043;28;20449;-72
2021/01/10 01:36:41;;;;;;;22.30;13.50;;;3.70;99.90;;;;;;4975159;28;20521;-75
2021/01/10 01:39:08;;;;;;;32.13;14.70;;;3.70;99.90;;;;;;4986044;28;20483;-73
2021/01/10 01:41:38;;;;;;;21.07;11.60;;;3.80;99.90;;;;;;4980027;28;20445;-73
2021/01/10 01:44:06;;;;;;;32.67;14.53;;;3.80;99.90;;;;;;4975896;28;20484;-74
2021/01/10 01:46:34;;;;;;;29.43;15.33;;;3.70;99.90;;;;;;4979288;28;20914;-74
2021/01/10 01:49:05;;;;;;;26.30;16.03;;;3.80;99.90;;;;;;4986602;28;20471;-72
2021/01/10 01:51:32;;;;;;;27.77;15.37;;;3.70;99.90;;;;;;4979602;28;20843;-74
2021/01/10 01:54:00;;;;;;;23.60;13.87;;;3.70;99.90;;;;;;4979388;28;20456;-72
2021/01/10 01:56:27;;;;;;;23.70;12.63;;;3.80;99.90;;;;;;4984139;28;20482;-71
2021/01/10 01:58:59;;;;;;;21.87;12.97;;;3.80;99.90;;;;;;4980776;28;20496;-73
2021/01/10 02:01:28;;;;;;;26.07;13.60;;;3.70;99.90;;;;;;4979095;28;20856;-74
2021/01/10 02:04:09;;;;;;;33.27;15.33;;;3.50;99.90;;;;;;4982064;28;21087;-75
2021/01/10 02:06:43;;;;;;;19.47;10.50;;;3.40;99.90;;;;;;4978798;28;21050;-71
2021/01/10 02:09:13;;;;;;;26.57;12.20;;;3.40;99.90;;;;;;4979427;28;20940;-72
2021/01/10 02:11:43;;;;;;;38.57;17.97;;;3.30;99.90;;;;;;4982518;28;20518;-73
2021/01/10 02:14:17;;;;;;;21.20;13.27;;;3.30;99.90;;;;;;4978114;28;20498;-71
2021/01/10 02:16:44;;;;;;;42.10;16.87;;;3.30;99.90;;;;;;4977176;28;20505;-72
2021/01/10 02:19:21;;;;;;;26.40;16.00;;;3.30;99.90;;;;;;4979555;28;20494;-71
2021/01/10 02:21:52;;;;;;;28.67;14.27;;;3.30;99.90;;;;;;4978345;28;20536;-72
2021/01/10 02:24:20;;;;;;;27.43;16.40;;;3.40;99.90;;;;;;4979166;28;21007;-71
2021/01/10 02:26:48;;;;;;;24.57;11.97;;;3.50;99.90;;;;;;4981247;28;20463;-72
2021/01/10 02:29:16;;;;;;;30.00;15.87;;;3.50;99.90;;;;;;4979312;28;20520;-73
2021/01/10 02:31:45;;;;;;;28.47;17.13;;;3.60;99.90;;;;;;4979130;28;20788;-73
2021/01/10 02:34:15;;;;;;;22.37;13.30;;;3.50;99.90;;;;;;4975653;28;20544;-74
2021/01/10 02:36:58;;;;;;;15.87;11.17;;;3.60;99.90;;;;;;4982125;28;21033;-73
2021/01/10 02:39:33;;;;;;;43.80;17.23;;;3.50;99.90;;;;;;4980462;28;20498;-73
2021/01/10 02:42:09;;;;;;;35.67;15.27;;;3.50;99.90;;;;;;4979882;28;20478;-73
2021/01/10 02:44:38;;;;;;;23.43;11.80;;;3.50;99.90;;;;;;4979651;28;20878;-72
2021/01/10 02:47:09;;;;;;;26.73;13.70;;;3.40;99.90;;;;;;4980240;28;20946;-73
2021/01/10 02:49:39;;;;;;;30.30;14.80;;;3.60;99.90;;;;;;4979986;28;20610;-74
2021/01/10 02:52:06;;;;;;;31.80;15.23;;;3.70;99.90;;;;;;4976545;28;20440;-70
2021/01/10 02:54:33;;;;;;;31.70;15.33;;;3.70;99.90;;;;;;4980938;28;20457;-72
2021/01/10 02:57:03;;;;;;;21.40;14.07;;;3.70;99.90;;;;;;4981699;28;20919;-71
2021/01/10 02:59:33;;;;;;;23.97;12.50;;;3.60;99.90;;;;;;4976182;28;20527;-73
2021/01/10 03:02:03;;;;;;;25.03;13.90;;;3.60;99.90;;;;;;4977425;28;20471;-74
2021/01/10 03:04:30;;;;;;;22.70;11.37;;;3.80;99.90;;;;;;4972817;28;20564;-72
2021/01/10 03:06:59;;;;;;;31.67;15.13;;;3.80;99.90;;;;;;4972685;28;20954;-72
2021/01/10 03:09:26;;;;;;;23.40;11.40;;;3.80;99.90;;;;;;4978454;28;20433;-72
2021/01/10 03:11:54;;;;;;;30.23;15.40;;;3.80;99.90;;;;;;4978222;28;20955;-72
2021/01/10 03:14:23;;;;;;;21.37;12.63;;;3.70;99.90;;;;;;4972704;28;20458;-74
2021/01/10 03:16:50;;;;;;;31.03;17.40;;;3.60;99.90;;;;;;4970832;28;20463;-74
2021/01/10 03:19:17;;;;;;;29.20;16.37;;;3.60;99.90;;;;;;4975812;28;20490;-72
2021/01/10 03:21:43;;;;;;;47.57;16.83;;;3.60;99.90;;;;;;4978640;28;20552;-73
2021/01/10 03:24:11;;;;;;;38.57;19.43;;;3.60;99.90;;;;;;4976273;28;20589;-74
2021/01/10 03:26:38;;;;;;;35.40;15.70;;;3.60;99.90;;;;;;4979753;28;20523;-70
2021/01/10 03:29:05;;;;;;;38.87;17.17;;;3.60;99.90;;;;;;4977252;28;20473;-70
2021/01/10 03:31:32;;;;;;;19.73;12.37;;;3.60;99.90;;;;;;4975302;28;20458;-72
2021/01/10 03:33:59;;;;;;;34.63;16.03;;;3.70;99.90;;;;;;4977504;28;20669;-73
2021/01/10 03:36:26;;;;;;;35.90;16.77;;;3.70;99.90;;;;;;4978378;28;20969;-72
2021/01/10 03:38:53;;;;;;;36.30;18.30;;;3.70;99.90;;;;;;4973757;28;20849;-73
2021/01/10 03:41:19;;;;;;;20.20;13.97;;;3.70;99.90;;;;;;4977538;28;20433;-72
2021/01/10 03:43:46;;;;;;;31.60;18.90;;;3.60;99.90;;;;;;4973443;28;20456;-75
2021/01/10 03:46:13;;;;;;;39.03;20.17;;;3.60;99.90;;;;;;4970396;28;20469;-72
2021/01/10 03:48:40;;;;;;;43.00;20.10;;;3.60;99.90;;;;;;4987989;28;20473;-72
2021/01/10 03:51:07;;;;;;;20.10;11.27;;;3.60;99.90;;;;;;4973567;28;20476;-73
2021/01/10 03:53:33;;;;;;;35.93;17.60;;;3.60;99.90;;;;;;4972457;28;20499;-73
2021/01/10 03:56:00;;;;;;;26.47;13.43;;;3.40;99.90;;;;;;4978741;28;20487;-70
2021/01/10 03:58:27;;;;;;;23.93;13.17;;;3.60;99.90;;;;;;4978710;28;20476;-70
2021/01/10 04:00:53;;;;;;;30.13;15.77;;;3.70;99.90;;;;;;4975363;28;21057;-72
2021/01/10 04:03:21;;;;;;;27.17;15.17;;;3.70;99.90;;;;;;4971133;28;20441;-72
2021/01/10 04:05:48;;;;;;;23.07;13.27;;;3.70;99.90;;;;;;4975229;28;20478;-73
2021/01/10 04:08:14;;;;;;;29.00;14.37;;;3.60;99.90;;;;;;4969275;28;20437;-72
2021/01/10 04:10:41;;;;;;;21.33;12.37;;;3.60;99.90;;;;;;4972164;28;20971;-72
2021/01/10 04:13:08;;;;;;;27.87;13.73;;;3.70;99.90;;;;;;4976008;28;20550;-73
2021/01/10 04:15:34;;;;;;;17.00;9.13;;;3.80;99.90;;;;;;4974591;28;20485;-72
2021/01/10 04:18:02;;;;;;;34.33;16.77;;;3.70;99.90;;;;;;4976899;28;20472;-71
2021/01/10 04:20:30;;;;;;;22.50;12.47;;;3.70;99.90;;;;;;4972109;28;20826;-71
2021/01/10 04:22:57;;;;;;;28.87;16.40;;;3.60;99.90;;;;;;4973003;28;20429;-71
2021/01/10 04:25:23;;;;;;;30.20;16.67;;;3.70;99.90;;;;;;4962033;28;20586;-72
2021/01/10 04:27:52;;;;;;;26.57;14.83;;;3.70;99.90;;;;;;4973585;28;20474;-74
2021/01/10 04:30:19;;;;;;;41.53;16.20;;;3.70;99.90;;;;;;4981692;28;20887;-74
2021/01/10 04:32:46;;;;;;;32.43;14.43;;;3.70;99.90;;;;;;4975081;28;20531;-75
2021/01/10 04:35:13;;;;;;;22.87;13.77;;;3.70;99.90;;;;;;4976155;28;20473;-71
2021/01/10 04:37:40;;;;;;;24.03;13.03;;;3.70;99.90;;;;;;4973300;28;20479;-72
2021/01/10 04:40:08;;;;;;;39.97;16.90;;;3.70;99.90;;;;;;4976023;28;20675;-70
2021/01/10 04:42:38;;;;;;;27.17;14.67;;;3.60;99.90;;;;;;4979239;28;20491;-72
2021/01/10 04:45:05;;;;;;;26.23;14.63;;;3.60;99.90;;;;;;4974382;28;20536;-73
2021/01/10 04:47:32;;;;;;;38.87;13.50;;;3.60;99.90;;;;;;4978062;28;20520;-74
2021/01/10 04:49:59;;;;;;;33.53;13.80;;;3.70;99.90;;;;;;4974824;28;20937;-73
2021/01/10 04:52:30;;;;;;;43.83;15.40;;;3.70;99.90;;;;;;4967643;28;20986;-74
2021/01/10 04:54:57;;;;;;;24.20;14.63;;;3.70;99.90;;;;;;4973649;28;20532;-73
2021/01/10 04:57:27;;;;;;;31.10;11.87;;;3.70;99.90;;;;;;4973747;28;20768;-73
2021/01/10 04:59:55;;;;;;;29.67;13.30;;;3.70;99.90;;;;;;4973235;28;20524;-72
2021/01/10 05:02:26;;;;;;;29.53;14.63;;;3.70;99.90;;;;;;4977261;28;20472;-70
2021/01/10 05:04:56;;;;;;;40.03;15.40;;;3.70;99.90;;;;;;4973217;28;21011;-72
2021/01/10 05:07:22;;;;;;;24.60;10.00;;;3.70;99.90;;;;;;4967745;28;21059;-72
2021/01/10 05:09:49;;;;;;;28.37;17.70;;;3.70;99.90;;;;;;4977403;28;20440;-73
2021/01/10 05:12:16;;;;;;;24.87;17.30;;;3.80;99.90;;;;;;4978361;28;20564;-73
2021/01/10 05:14:43;;;;;;;22.40;13.40;;;3.60;99.90;;;;;;4973251;28;20614;-74
2021/01/10 05:17:20;;;;;;;17.67;10.70;;;3.70;99.90;;;;;;4968181;28;20994;-72
2021/01/10 05:19:47;;;;;;;19.47;14.13;;;3.70;99.90;;;;;;4971604;28;20486;-71
2021/01/10 05:22:15;;;;;;;23.97;15.20;;;3.70;99.90;;;;;;4972991;28;20629;-71
2021/01/10 05:24:44;;;;;;;18.73;12.00;;;3.50;99.90;;;;;;4968850;28;20856;-75
2021/01/10 05:27:10;;;;;;;18.80;12.33;;;3.50;99.90;;;;;;4968660;28;20827;-73
2021/01/10 05:29:38;;;;;;;19.67;15.40;;;3.40;99.90;;;;;;4974689;28;20443;-73
2021/01/10 05:32:05;;;;;;;22.77;10.67;;;3.50;99.90;;;;;;4977146;28;20468;-73
2021/01/10 05:34:32;;;;;;;23.00;11.57;;;3.50;99.90;;;;;;4971824;28;20485;-74
2021/01/10 05:37:12;;;;;;;21.50;13.87;;;3.70;99.90;;;;;;4974177;28;20541;-73
2021/01/10 05:39:44;;;;;;;23.63;13.73;;;3.60;99.90;;;;;;4977028;28;20436;-73
2021/01/10 05:42:11;;;;;;;22.30;13.73;;;3.50;99.90;;;;;;4975473;28;20429;-74
2021/01/10 05:44:54;;;;;;;26.40;13.00;;;3.50;99.90;;;;;;4974380;28;20464;-71
2021/01/10 05:47:21;;;;;;;24.87;14.60;;;3.40;99.90;;;;;;4972673;28;20464;-73
2021/01/10 05:49:48;;;;;;;18.53;11.73;;;3.50;99.90;;;;;;4981615;28;21052;-72
2021/01/10 05:52:16;;;;;;;31.90;13.80;;;3.60;99.90;;;;;;4974025;28;20507;-71
2021/01/10 05:54:43;;;;;;;18.03;11.87;;;3.50;99.90;;;;;;4974587;28;20468;-73
2021/01/10 05:57:11;;;;;;;25.77;10.50;;;3.60;99.90;;;;;;4977312;28;20486;-74
2021/01/10 05:59:47;;;;;;;27.30;10.10;;;3.60;99.90;;;;;;4971596;28;20546;-74
2021/01/10 06:02:26;;;;;;;25.43;16.57;;;3.70;99.90;;;;;;4976057;28;20879;-72
2021/01/10 06:05:06;;;;;;;26.57;13.63;;;3.50;99.90;;;;;;4973818;28;20545;-72
2021/01/10 06:07:33;;;;;;;29.60;11.37;;;3.40;99.90;;;;;;4974031;28;20579;-73
2021/01/10 06:10:00;;;;;;;26.43;13.70;;;3.40;99.90;;;;;;4973060;28;20520;-73
2021/01/10 06:12:26;;;;;;;31.60;8.70;;;3.30;99.90;;;;;;4970288;28;20620;-74
2021/01/10 06:15:09;;;;;;;29.83;13.27;;;3.40;99.90;;;;;;4970900;28;20476;-71
2021/01/10 06:17:41;;;;;;;43.00;13.53;;;3.40;99.90;;;;;;4976932;28;20479;-72
2021/01/10 06:20:17;;;;;;;13.00;8.03;;;3.40;99.90;;;;;;4975331;28;20441;-71
2021/01/10 06:22:50;;;;;;;19.13;11.93;;;3.40;99.90;;;;;;4977512;28;20532;-71
2021/01/10 06:25:21;;;;;;;33.17;14.73;;;3.30;99.90;;;;;;4975819;28;20875;-72
2021/01/10 06:27:53;;;;;;;18.57;11.40;;;3.40;99.90;;;;;;4981136;28;20458;-73
2021/01/10 06:30:26;;;;;;;28.20;15.43;;;3.40;99.90;;;;;;4979879;28;20553;-72
2021/01/10 06:33:00;;;;;;;14.80;10.67;;;3.30;99.90;;;;;;4978260;28;20426;-75
2021/01/10 06:35:31;;;;;;;26.13;14.23;;;3.20;99.90;;;;;;4979901;28;20488;-73
2021/01/10 06:37:58;;;;;;;30.83;15.93;;;3.20;99.90;;;;;;4977694;28;20490;-73
2021/01/10 06:40:25;;;;;;;24.83;13.70;;;3.30;99.90;;;;;;4979108;28;20525;-71
2021/01/10 06:42:54;;;;;;;30.83;13.30;;;3.10;99.90;;;;;;4982548;28;20455;-71
2021/01/10 06:45:23;;;;;;;32.47;15.77;;;3.10;99.90;;;;;;4973232;28;20546;-71
2021/01/10 06:47:55;;;;;;;25.10;17.27;;;3.20;99.90;;;;;;4979626;28;20823;-71
2021/01/10 06:50:22;;;;;;;33.03;16.43;;;3.20;99.90;;;;;;4981043;28;20441;-73
2021/01/10 06:52:58;;;;;;;24.40;10.83;;;3.10;99.90;;;;;;4984931;28;20513;-74
2021/01/10 06:55:26;;;;;;;23.27;15.27;;;3.00;99.90;;;;;;4974704;28;20548;-71
2021/01/10 06:57:52;;;;;;;23.20;10.90;;;3.10;99.90;;;;;;4981587;28;20431;-72
2021/01/10 07:00:20;;;;;;;28.07;16.03;;;3.10;99.90;;;;;;4964619;28;20445;-72
2021/01/10 07:03:15;;;;;;;15.37;12.87;;;3.10;99.90;;;;;;4981414;28;20437;-72
2021/01/10 07:06:08;;;;;;;25.07;8.27;;;3.10;99.90;;;;;;4945320;28;20527;-73
2021/01/10 07:08:40;;;;;;;19.53;11.80;;;3.10;99.90;;;;;;4979420;28;20448;-70
2021/01/10 07:11:35;;;;;;;14.53;11.67;;;3.10;99.90;;;;;;4985373;28;20465;-71
2021/01/10 07:14:24;;;;;;;21.27;11.87;;;3.10;99.90;;;;;;4977740;28;20530;-73
2021/01/10 07:17:11;;;;;;;25.53;13.67;;;3.00;99.90;;;;;;4984129;28;20767;-71
2021/01/10 07:19:44;;;;;;;31.40;16.07;;;2.90;99.90;;;;;;4980993;28;20440;-72
2021/01/10 07:22:26;;;;;;;19.20;12.13;;;3.00;99.90;;;;;;4985410;28;20545;-72
2021/01/10 07:24:53;;;;;;;19.50;13.27;;;2.90;99.90;;;;;;4979230;28;20481;-71
2021/01/10 07:27:31;;;;;;;26.97;12.10;;;2.90;99.90;;;;;;4971103;28;20535;-73
2021/01/10 07:29:58;;;;;;;29.10;13.60;;;2.90;99.90;;;;;;4976424;28;20966;-72
2021/01/10 07:32:36;;;;;;;23.07;11.97;;;2.90;99.90;;;;;;4971593;28;20500;-74
2021/01/10 07:35:06;;;;;;;23.33;9.77;;;3.00;99.90;;;;;;4975653;28;20456;-70
2021/01/10 07:37:34;;;;;;;21.80;11.30;;;2.90;99.90;;;;;;4971723;28;20564;-73
2021/01/10 07:40:02;;;;;;;28.07;15.70;;;2.70;99.90;;;;;;4978069;28;20468;-72
2021/01/10 07:42:30;;;;;;;33.40;16.10;;;2.60;99.90;;;;;;4976310;28;20513;-73
2021/01/10 07:44:58;;;;;;;35.30;15.67;;;2.70;99.90;;;;;;4968605;28;20584;-72
2021/01/10 07:47:45;;;;;;;39.33;18.00;;;2.80;99.90;;;;;;4972320;28;21312;-72
2021/01/10 07:50:24;;;;;;;22.40;14.67;;;2.80;99.90;;;;;;4976348;28;20511;-73
2021/01/10 07:52:56;;;;;;;24.90;13.80;;;2.90;99.90;;;;;;4977214;28;20444;-71
2021/01/10 07:55:25;;;;;;;32.13;11.50;;;2.80;99.90;;;;;;4973624;28;20493;-71
2021/01/10 07:57:53;;;;;;;51.13;13.00;;;2.80;99.90;;;;;;4979043;28;20549;-71
2021/01/10 08:00:21;;;;;;;31.53;14.67;;;2.90;99.90;;;;;;4977721;28;20433;-73
2021/01/10 08:02:56;;;;;;;26.70;12.30;;;3.10;99.90;;;;;;4972450;28;20494;-70
2021/01/10 08:05:26;;;;;;;30.40;15.17;;;3.00;99.90;;;;;;4966144;28;20479;-72
2021/01/10 08:07:58;;;;;;;27.60;16.17;;;2.90;99.90;;;;;;4977047;28;20585;-73
2021/01/10 08:10:27;;;;;;;26.70;12.60;;;2.90;99.90;;;;;;4980124;28;20803;-70
2021/01/10 08:12:53;;;;;;;26.00;15.37;;;2.90;99.90;;;;;;4975889;28;20863;-71
2021/01/10 08:15:20;;;;;;;21.53;14.73;;;3.10;99.90;;;;;;4971711;28;20570;-74
2021/01/10 08:17:48;;;;;;;19.97;12.00;;;3.10;99.90;;;;;;4975818;28;20614;-71
2021/01/10 08:20:15;;;;;;;20.50;13.60;;;3.00;99.90;;;;;;4973852;28;20488;-73
2021/01/10 08:22:42;;;;;;;25.20;13.90;;;3.00;99.90;;;;;;4979129;28;20509;-72
2021/01/10 08:25:22;;;;;;;16.20;12.97;;;3.00;99.90;;;;;;4968179;28;20957;-73
2021/01/10 08:27:49;;;;;;;27.67;14.73;;;3.10;99.90;;;;;;4971724;28;20450;-71
2021/01/10 08:30:16;;;;;;;29.10;16.33;;;3.10;99.90;;;;;;4978366;28;20444;-72
2021/01/10 08:32:44;;;;;;;27.10;12.07;;;3.20;99.90;;;;;;4977821;28;20422;-72
2021/01/10 08:35:11;;;;;;;25.83;11.97;;;3.20;99.90;;;;;;4976030;28;20484;-74
2021/01/10 08:37:38;;;;;;;22.60;12.20;;;3.20;99.90;;;;;;4980605;28;20461;-71
2021/01/10 08:40:08;;;;;;;32.43;19.07;;;3.30;99.90;;;;;;4982764;28;20438;-72
2021/01/10 08:42:35;;;;;;;26.67;13.83;;;3.20;99.90;;;;;;4984158;28;20443;-73
2021/01/10 08:45:16;;;;;;;16.07;12.57;;;3.10;99.90;;;;;;4979779;28;20453;-72
2021/01/10 08:47:43;;;;;;;21.13;13.57;;;3.10;99.90;;;;;;4978645;28;20484;-72
2021/01/10 08:50:12;;;;;;;21.60;12.80;;;3.20;99.90;;;;;;4982626;28;20472;-71
2021/01/10 08:52:52;;;;;;;22.80;13.80;;;3.30;99.90;;;;;;4983046;28;20563;-71
2021/01/10 08:55:33;;;;;;;29.43;11.80;;;3.30;99.90;;;;;;4983365;28;20506;-72
2021/01/10 08:58:01;;;;;;;19.40;12.73;;;3.40;99.90;;;;;;4983744;28;20941;-74
2021/01/10 09:00:28;;;;;;;38.53;12.77;;;3.40;99.90;;;;;;4976241;28;20996;-74
2021/01/10 09:02:55;;;;;;;30.13;15.43;;;3.50;99.90;;;;;;4982125;28;20508;-71
2021/01/10 09:05:25;;;;;;;15.30;8.77;;;3.40;99.90;;;;;;4984149;28;20453;-71
2021/01/10 09:08:02;;;;;;;15.60;9.30;;;3.50;99.90;;;;;;4973936;28;20974;-73
2021/01/10 09:10:37;;;;;;;33.80;15.73;;;3.70;99.90;;;;;;4984658;28;20473;-73
2021/01/10 09:13:07;;;;;;;29.00;13.80;;;3.50;99.90;;;;;;4977366;28;20827;-74
2021/01/10 09:15:38;;;;;;;24.50;13.10;;;3.50;99.90;;;;;;4981381;28;20496;-72
2021/01/10 09:18:08;;;;;;;33.33;12.00;;;3.60;99.90;;;;;;4976933;28;20481;-72
2021/01/10 09:20:39;;;;;;;26.60;14.53;;;3.60;99.90;;;;;;4978201;28;20511;-70
2021/01/10 09:23:08;;;;;;;17.67;15.80;;;3.80;99.90;;;;;;4980353;28;20667;-71
2021/01/10 09:25:37;;;;;;;21.73;15.47;;;3.80;99.90;;;;;;4977321;28;20460;-71
2021/01/10 09:28:07;;;;;;;25.37;12.27;;;3.60;99.90;;;;;;4970692;28;20498;-70
2021/01/10 09:30:34;;;;;;;12.33;8.57;;;3.50;99.90;;;;;;4976120;28;20532;-70
2021/01/10 09:33:03;;;;;;;21.77;13.27;;;3.70;99.90;;;;;;4980108;28;20488;-70
2021/01/10 09:35:37;;;;;;;27.80;13.03;;;3.70;99.90;;;;;;4973708;28;20455;-73
2021/01/10 09:38:08;;;;;;;30.17;15.87;;;3.80;99.90;;;;;;4979388;28;20501;-71
2021/01/10 09:40:36;;;;;;;28.17;15.80;;;3.80;99.90;;;;;;4977229;28;20471;-71
2021/01/10 09:43:03;;;;;;;36.93;16.70;;;3.90;99.90;;;;;;4976532;28;20521;-71
2021/01/10 09:45:37;;;;;;;23.40;13.37;;;4.00;99.90;;;;;;4976607;28;20483;-72
2021/01/10 09:48:04;;;;;;;25.37;12.20;;;4.00;99.90;;;;;;4974976;28;20463;-72
2021/01/10 09:50:32;;;;;;;23.57;15.87;;;4.00;99.90;;;;;;4975868;28;20502;-69
2021/01/10 09:52:59;;;;;;;30.17;15.13;;;4.10;99.90;;;;;;4976758;28;20469;-70
2021/01/10 09:55:25;;;;;;;36.73;11.90;;;4.10;99.90;;;;;;4975816;28;20459;-72
2021/01/10 09:57:53;;;;;;;14.00;9.47;;;4.30;99.90;;;;;;4974052;28;20604;-71
2021/01/10 10:00:21;;;;;;;25.00;14.50;;;4.20;99.90;;;;;;4979839;28;20577;-73
2021/01/10 10:02:48;;;;;;;20.83;11.90;;;4.20;99.90;;;;;;4973842;28;20545;-73
2021/01/10 10:05:16;;;;;;;22.50;13.00;;;4.20;99.90;;;;;;4979756;28;20581;-72
2021/01/10 10:07:45;;;;;;;26.60;14.93;;;4.20;99.90;;;;;;4972052;28;20542;-71
2021/01/10 10:10:23;;;;;;;28.60;15.80;;;4.30;99.90;;;;;;4974100;28;20561;-73
2021/01/10 10:12:55;;;;;;;30.33;15.97;;;4.20;99.90;;;;;;4970869;28;20516;-73
2021/01/10 10:15:23;;;;;;;16.87;9.77;;;4.20;99.90;;;;;;4971225;28;20485;-71
2021/01/10 10:17:50;;;;;;;20.70;11.93;;;4.50;99.90;;;;;;4974104;28;20454;-72
2021/01/10 10:20:16;;;;;;;18.77;10.33;;;4.50;99.90;;;;;;4972383;28;20525;-70
2021/01/10 10:22:44;;;;;;;16.90;13.30;;;4.50;99.90;;;;;;4973801;28;21012;-72
2021/01/10 10:25:12;;;;;;;13.50;10.33;;;4.70;99.90;;;;;;4976107;28;20521;-73
2021/01/10 10:27:57;;;;;;;16.10;8.97;;;4.70;99.90;;;;;;4978979;28;20442;-73
2021/01/10 10:30:24;;;;;;;14.73;8.40;;;4.70;99.90;;;;;;4980546;28;20453;-72
2021/01/10 10:32:50;;;;;;;17.10;10.17;;;4.60;99.90;;;;;;4975927;28;20842;-72
2021/01/10 10:35:17;;;;;;;19.40;10.37;;;4.60;99.90;;;;;;4981034;28;20536;-71
2021/01/10 10:37:44;;;;;;;14.03;10.57;;;4.50;99.90;;;;;;4979171;28;20562;-70
2021/01/10 10:40:12;;;;;;;28.10;11.93;;;4.50;99.90;;;;;;4981996;28;20459;-72
2021/01/10 10:42:39;;;;;;;14.50;10.33;;;4.50;99.90;;;;;;4981189;28;21026;-72
2021/01/10 10:45:07;;;;;;;12.20;10.80;;;4.60;99.90;;;;;;4980383;28;20540;-73
2021/01/10 10:47:34;;;;;;;11.33;9.97;;;4.70;99.90;;;;;;4983852;28;20431;-72
2021/01/10 10:50:01;;;;;;;25.17;11.60;;;4.70;99.90;;;;;;4981308;28;21441;-72
2021/01/10 10:52:28;;;;;;;15.80;9.30;;;4.70;99.90;;;;;;4979475;28;21115;-72
2021/01/10 10:54:54;;;;;;;22.87;11.23;;;4.60;99.90;;;;;;4984236;28;20514;-70
2021/01/10 10:57:21;;;;;;;17.40;8.80;;;4.70;99.90;;;;;;4981541;28;20492;-70
2021/01/10 10:59:48;;;;;;;15.43;8.93;;;4.70;99.90;;;;;;4979410;28;20473;-73
2021/01/10 11:02:16;;;;;;;22.93;10.83;;;4.80;99.90;;;;;;4979253;28;20436;-73
2021/01/10 11:04:45;;;;;;;6.00;3.67;;;4.90;99.90;;;;;;4974687;28;21159;-72
2021/01/10 11:07:12;;;;;;;6.53;4.30;;;4.90;99.90;;;;;;4976409;28;20430;-69
2021/01/10 11:09:38;;;;;;;11.17;6.70;;;4.90;99.90;;;;;;4980489;28;20460;-72
2021/01/10 11:12:10;;;;;;;22.53;8.60;;;4.90;99.90;;;;;;4981359;28;20457;-72
2021/01/10 11:14:38;;;;;;;13.90;9.60;;;5.00;99.90;;;;;;4979008;28;21025;-69
2021/01/10 11:17:05;;;;;;;17.47;9.07;;;5.10;99.90;;;;;;4975753;28;21052;-74
2021/01/10 11:19:32;;;;;;;15.63;5.53;;;5.20;99.90;;;;;;4970883;28;20466;-73
2021/01/10 11:22:01;;;;;;;9.50;8.13;;;5.40;99.90;;;;;;4975714;28;20448;-72
2021/01/10 11:24:28;;;;;;;13.47;5.70;;;5.40;99.90;;;;;;4976220;28;20503;-73
2021/01/10 11:26:55;;;;;;;10.47;7.37;;;5.40;99.90;;;;;;4969818;28;20512;-71
2021/01/10 11:29:22;;;;;;;9.73;7.37;;;5.50;99.90;;;;;;4976428;28;20458;-72
2021/01/10 11:31:49;;;;;;;19.13;5.43;;;5.70;99.90;;;;;;4973259;28;20457;-74
2021/01/10 11:34:15;;;;;;;9.13;8.23;;;5.70;99.90;;;;;;4975560;28;20488;-73
2021/01/10 11:36:47;;;;;;;10.37;5.50;;;5.50;99.90;;;;;;4978117;28;20615;-72
2021/01/10 11:39:15;;;;;;;5.77;3.07;;;5.50;99.90;;;;;;4978110;28;20437;-72
2021/01/10 11:41:45;;;;;;;19.30;7.20;;;5.40;99.90;;;;;;4976843;28;20477;-72
2021/01/10 11:44:12;;;;;;;15.30;7.40;;;5.30;99.90;;;;;;4982283;28;21021;-72
2021/01/10 11:46:41;;;;;;;7.90;4.33;;;5.50;99.90;;;;;;4977042;28;20466;-75
2021/01/10 11:49:08;;;;;;;10.10;5.67;;;5.60;99.90;;;;;;4985486;28;20436;-74
2021/01/10 11:51:39;;;;;;;8.30;6.10;;;5.60;99.90;;;;;;5005021;28;20461;-73
2021/01/10 11:54:15;;;;;;;10.70;5.70;;;5.50;99.90;;;;;;5001862;28;20501;-75
2021/01/10 11:56:42;;;;;;;19.43;8.57;;;5.60;99.90;;;;;;5004559;28;21314;-76
2021/01/10 11:59:09;;;;;;;12.73;5.20;;;5.60;99.90;;;;;;5001091;28;20434;-75
2021/01/10 12:01:39;;;;;;;7.83;5.10;;;5.50;99.90;;;;;;5007230;28;20430;-73
2021/01/10 12:04:07;;;;;;;10.93;7.17;;;5.60;99.90;;;;;;5001367;28;20480;-72
2021/01/10 12:06:34;;;;;;;6.67;4.17;;;5.40;99.90;;;;;;5003879;28;20459;-75
2021/01/10 12:09:04;;;;;;;3.13;2.90;;;5.40;99.90;;;;;;4997497;28;20459;-73
2021/01/10 12:11:32;;;;;;;11.77;4.33;;;5.60;99.90;;;;;;4998152;28;20445;-74
2021/01/10 12:13:59;;;;;;;7.70;6.17;;;5.40;99.90;;;;;;4992862;28;20548;-75
2021/01/10 12:16:26;;;;;;;10.43;4.40;;;5.30;99.90;;;;;;4993504;28;20556;-73
2021/01/10 12:18:52;;;;;;;8.13;4.67;;;5.40;99.90;;;;;;4976506;28;20527;-74
2021/01/10 12:21:19;;;;;;;10.03;5.40;;;5.30;99.90;;;;;;4975710;28;20441;-73
2021/01/10 12:23:46;;;;;;;7.73;5.03;;;5.40;99.90;;;;;;4961197;28;20570;-73
2021/01/10 12:26:14;;;;;;;19.73;6.10;;;5.50;99.90;;;;;;4975756;28;20467;-73
2021/01/10 12:28:42;;;;;;;15.27;5.83;;;5.60;99.90;;;;;;4965290;28;20444;-73
2021/01/10 12:31:09;;;;;;;7.70;5.43;;;5.70;99.90;;;;;;4965111;28;20472;-74
2021/01/10 12:33:37;;;;;;;16.90;5.20;;;5.90;99.90;;;;;;4967461;28;20440;-73
2021/01/10 12:36:06;;;;;;;5.43;4.40;;;6.00;99.90;;;;;;4968344;28;20643;-73
2021/01/10 12:38:32;;;;;;;11.67;5.40;;;6.20;99.90;;;;;;4973192;28;20435;-72
2021/01/10 12:40:59;;;;;;;10.90;7.20;;;6.20;99.90;;;;;;4975434;28;20981;-72
2021/01/10 12:43:26;;;;;;;9.53;4.70;;;6.20;99.90;;;;;;4977231;28;20489;-73
2021/01/10 12:45:53;;;;;;;11.20;4.27;;;6.60;99.90;;;;;;4977865;28;20477;-73
2021/01/10 12:48:20;;;;;;;9.40;4.40;;;6.60;99.90;;;;;;4971732;28;20461;-74